KLPC/LPC METAR and TAF weather

Enter ICAO airport designator
Station Type Date Time Source
KLPC METAR 2019/05/27 08:56 UTC NOAA

KLPC 270856Z AUTO 00000KT 10SM BKN048 07/06 A3003 RMK AO2 SLP173 T00720061 51000


Station Type Date Time Source
KLPC Decoded METAR 2019/05/27 08:56 UTC NOAA

Lompoc, Lompoc Airport, CA, United States (KLPC) 34-40N 120-28W
May 27, 2019 - 04:56 AM EDT / 2019.05.27 0856 UTC
Wind: Calm:0
Visibility: 10 mile(s):0
Sky conditions: mostly cloudy
Temperature: 45.0 F (7.2 C)
Dew Point: 43.0 F (6.1 C)
Relative Humidity: 92%
Pressure (altimeter): 30.03 in. Hg (1016 hPa)
Pressure tendency: 0.00 inches (0.0 hPa) higher than three hours ago
ob: KLPC 270856Z AUTO 00000KT 10SM BKN048 07/06 A3003 RMK AO2 SLP173 T00720061 51000
cycle: 9

Station Type Date Time Source
KLPC TAF UTC NOAA

Error!

Example: see airport list